Time,TemperatureF,DewpointF,PressureIn,WindDirection,WindDirectionDegrees,WindSpeedMPH,WindSpeedGustMPH,Humidity,HourlyPrecipIn,Conditions,Clouds,dailyrainin,SoftwareType,DateUTC
2013-04-12 00:03:00,50.0,39.0,29.87,SE,146,6.0,6.0,67,0.00,,,0.00,,2013-04-12 05:03:00,
2013-04-12 00:12:00,50.0,39.0,29.87,SE,146,6.0,6.0,67,0.00,,,0.00,,2013-04-12 05:12:00,
2013-04-12 00:22:00,50.0,40.0,29.87,SE,134,6.0,6.0,68,0.00,,,0.00,,2013-04-12 05:22:00,
2013-04-12 00:32:00,50.0,40.0,29.87,East,100,6.0,9.0,69,0.00,,,0.00,,2013-04-12 05:32:00,
2013-04-12 00:42:00,50.0,40.0,29.87,East,100,6.0,9.0,69,0.00,,,0.00,,2013-04-12 05:42:00,
2013-04-12 00:52:00,50.0,40.0,29.87,SE,142,7.0,8.0,69,0.00,,,0.00,,2013-04-12 05:52:00,
2013-04-12 01:02:00,49.0,40.0,29.87,SE,135,4.0,4.0,70,0.00,,,0.00,,2013-04-12 06:02:00,
2013-04-12 01:12:00,49.0,40.0,29.87,SE,135,4.0,4.0,70,0.00,,,0.00,,2013-04-12 06:12:00,
2013-04-12 01:22:00,49.0,40.0,29.88,SSE,156,6.0,6.0,72,0.00,,,0.00,,2013-04-12 06:22:00,
2013-04-12 01:32:00,49.0,41.0,29.88,SSE,149,6.0,6.0,73,0.00,,,0.00,,2013-04-12 06:32:00,
2013-04-12 01:42:00,49.0,41.0,29.88,SSE,149,6.0,6.0,73,0.00,,,0.00,,2013-04-12 06:42:00,
2013-04-12 01:52:00,49.0,41.0,29.88,ESE,115,6.0,6.0,74,0.00,,,0.00,,2013-04-12 06:52:00,
2013-04-12 02:01:00,48.0,41.0,29.88,SSE,153,4.0,5.0,76,0.00,,,0.00,,2013-04-12 07:01:00,
2013-04-12 02:11:00,48.0,41.0,29.88,SSE,153,4.0,5.0,76,0.00,,,0.00,,2013-04-12 07:11:00,
2013-04-12 02:22:00,47.0,41.0,29.88,SSE,153,6.0,6.0,78,0.00,,,0.00,,2013-04-12 07:22:00,
2013-04-12 02:32:00,47.0,41.0,29.88,SSE,159,2.0,3.0,79,0.00,,,0.00,,2013-04-12 07:32:00,
2013-04-12 02:42:00,47.0,41.0,29.88,SSE,159,2.0,3.0,79,0.00,,,0.00,,2013-04-12 07:42:00,
2013-04-12 02:52:00,46.0,40.0,29.88,SSE,150,3.0,3.0,80,0.00,,,0.00,,2013-04-12 07:52:00,
2013-04-12 03:03:00,46.0,41.0,29.87,SSE,162,3.0,3.0,82,0.00,,,0.00,,2013-04-12 08:03:00,
2013-04-12 03:12:00,46.0,41.0,29.87,SSE,162,3.0,3.0,82,0.00,,,0.00,,2013-04-12 08:12:00,
2013-04-12 03:22:00,46.0,41.0,29.87,SE,135,6.0,6.0,84,0.00,,,0.00,,2013-04-12 08:22:00,
2013-04-12 03:32:00,47.0,42.0,29.87,SSE,165,7.0,7.0,83,0.00,,,0.00,,2013-04-12 08:32:00,
2013-04-12 03:42:00,47.0,42.0,29.87,SSE,165,7.0,7.0,83,0.00,,,0.00,,2013-04-12 08:42:00,
2013-04-12 03:52:00,47.0,42.0,29.87,SSE,167,6.0,6.0,83,0.00,,,0.00,,2013-04-12 08:52:00,
2013-04-12 04:02:00,47.0,42.0,29.87,SSW,200,2.0,4.0,84,0.00,,,0.00,,2013-04-12 09:02:00,
2013-04-12 04:12:00,47.0,42.0,29.87,SSW,200,2.0,4.0,84,0.00,,,0.00,,2013-04-12 09:12:00,
2013-04-12 04:22:00,46.0,42.0,29.87,SSW,200,2.0,2.0,85,0.00,,,0.00,,2013-04-12 09:22:00,
2013-04-12 04:32:00,44.0,41.0,29.87,WNW,294,2.0,2.0,88,0.00,,,0.00,,2013-04-12 09:32:00,
2013-04-12 04:43:00,44.0,41.0,29.87,WNW,294,2.0,2.0,88,0.00,,,0.00,,2013-04-12 09:43:00,
2013-04-12 04:52:00,43.0,40.0,29.87,WNW,288,0.0,0.0,89,0.00,,,0.00,,2013-04-12 09:52:00,
2013-04-12 05:02:00,43.0,40.0,29.87,WNW,288,0.0,0.0,89,0.00,,,0.00,,2013-04-12 10:02:00,
2013-04-12 05:12:00,41.0,39.0,29.88,WNW,288,0.0,0.0,92,0.00,,,0.00,,2013-04-12 10:12:00,
2013-04-12 05:23:00,41.0,39.0,29.88,WNW,288,0.0,0.0,92,0.00,,,0.00,,2013-04-12 10:23:00,
2013-04-12 05:33:00,41.0,39.0,29.88,WNW,288,0.0,0.0,93,0.00,,,0.00,,2013-04-12 10:33:00,
2013-04-12 05:42:00,41.0,39.0,29.88,WNW,288,0.0,0.0,93,0.00,,,0.00,,2013-04-12 10:42:00,
2013-04-12 05:53:00,41.0,39.0,29.89,WNW,288,0.0,0.0,94,0.00,,,0.00,,2013-04-12 10:53:00,
2013-04-12 06:02:00,41.0,40.0,29.90,WNW,288,0.0,0.0,95,0.00,,,0.00,,2013-04-12 11:02:00,
2013-04-12 06:12:00,41.0,40.0,29.90,WNW,288,0.0,0.0,95,0.00,,,0.00,,2013-04-12 11:12:00,
2013-04-12 06:22:00,41.0,40.0,29.91,WNW,288,0.0,0.0,95,0.00,,,0.00,,2013-04-12 11:22:00,
2013-04-12 06:32:00,41.0,40.0,29.91,WNW,288,0.0,0.0,95,0.00,,,0.00,,2013-04-12 11:32:00,
2013-04-12 06:42:00,41.0,40.0,29.91,WNW,288,0.0,0.0,95,0.00,,,0.00,,2013-04-12 11:42:00,
2013-04-12 06:52:00,42.0,41.0,29.91,WNW,288,0.0,0.0,95,0.00,,,0.00,,2013-04-12 11:52:00,
2013-04-12 07:02:00,42.0,41.0,29.91,WNW,288,0.0,0.0,95,0.00,,,0.00,,2013-04-12 12:02:00,
2013-04-12 07:12:00,42.0,41.0,29.91,WNW,288,0.0,0.0,95,0.00,,,0.00,,2013-04-12 12:12:00,
2013-04-12 07:22:00,43.0,42.0,29.92,WNW,288,0.0,0.0,95,0.00,,,0.00,,2013-04-12 12:22:00,
2013-04-12 07:32:00,42.0,41.0,29.92,WNW,288,0.0,0.0,95,0.00,,,0.00,,2013-04-12 12:32:00,
2013-04-12 07:42:00,42.0,41.0,29.92,WNW,288,0.0,0.0,95,0.00,,,0.00,,2013-04-12 12:42:00,
2013-04-12 07:53:00,42.0,41.0,29.92,WNW,288,0.0,0.0,95,0.00,,,0.00,,2013-04-12 12:53:00,
2013-04-12 08:03:00,47.0,45.0,29.94,WNW,288,0.0,0.0,93,0.00,,,0.00,,2013-04-12 13:03:00,
2013-04-12 08:12:00,47.0,45.0,29.94,WNW,288,0.0,0.0,93,0.00,,,0.00,,2013-04-12 13:12:00,
2013-04-12 08:22:00,52.0,48.0,29.95,WNW,288,0.0,0.0,86,0.00,,,0.00,,2013-04-12 13:22:00,
2013-04-12 08:32:00,57.0,51.0,29.95,South,172,0.0,0.0,80,0.00,,,0.00,,2013-04-12 13:32:00,
2013-04-12 08:42:00,57.0,51.0,29.95,South,172,0.0,0.0,80,0.00,,,0.00,,2013-04-12 13:42:00,
2013-04-12 08:53:00,61.0,52.0,29.95,ESE,107,2.0,2.0,71,0.00,,,0.00,,2013-04-12 13:53:00,
2013-04-12 09:03:00,61.0,50.0,29.95,East,96,2.0,2.0,67,0.00,,,0.00,,2013-04-12 14:03:00,
2013-04-12 09:12:00,61.0,50.0,29.95,East,96,2.0,2.0,67,0.00,,,0.00,,2013-04-12 14:12:00,
2013-04-12 09:22:00,61.0,49.0,29.95,ESE,118,4.0,4.0,65,0.00,,,0.00,,2013-04-12 14:22:00,
2013-04-12 09:32:00,62.0,49.0,29.95,ESE,121,5.0,5.0,62,0.00,,,0.00,,2013-04-12 14:32:00,
2013-04-12 09:42:00,62.0,49.0,29.95,ESE,121,5.0,5.0,62,0.00,,,0.00,,2013-04-12 14:42:00,
2013-04-12 09:53:00,64.0,50.0,29.96,SSE,160,6.0,6.0,60,0.00,,,0.00,,2013-04-12 14:53:00,
2013-04-12 10:02:00,68.0,51.0,29.96,SE,127,4.0,5.0,55,0.00,,,0.00,,2013-04-12 15:02:00,
2013-04-12 10:12:00,68.0,51.0,29.96,SE,127,4.0,5.0,55,0.00,,,0.00,,2013-04-12 15:12:00,
2013-04-12 10:22:00,71.0,52.0,29.95,SE,134,7.0,7.0,52,0.00,,,0.00,,2013-04-12 15:22:00,
2013-04-12 10:33:00,74.0,52.0,29.95,SSW,212,7.0,7.0,47,0.00,,,0.00,,2013-04-12 15:33:00,
2013-04-12 10:43:00,74.0,52.0,29.95,SSW,212,7.0,7.0,47,0.00,,,0.00,,2013-04-12 15:43:00,
2013-04-12 10:53:00,77.0,53.0,29.95,SSW,212,4.0,5.0,44,0.00,,,0.00,,2013-04-12 15:53:00,
2013-04-12 11:03:00,80.0,53.0,29.95,South,170,7.0,7.0,40,0.00,,,0.00,,2013-04-12 16:03:00,
2013-04-12 11:13:00,80.0,53.0,29.95,South,170,7.0,7.0,40,0.00,,,0.00,,2013-04-12 16:13:00,
2013-04-12 11:23:00,81.0,53.0,29.95,SSE,158,6.0,6.0,38,0.00,,,0.00,,2013-04-12 16:23:00,
2013-04-12 11:33:00,83.0,54.0,29.94,SE,138,8.0,8.0,37,0.00,,,0.00,,2013-04-12 16:33:00,
2013-04-12 11:42:00,83.0,54.0,29.94,SE,138,8.0,8.0,37,0.00,,,0.00,,2013-04-12 16:42:00,
2013-04-12 11:53:00,84.0,53.0,29.94,SW,232,5.0,6.0,35,0.00,,,0.00,,2013-04-12 16:53:00,
2013-04-12 12:03:00,84.0,53.0,29.93,SSE,153,7.0,7.0,35,0.00,,,0.00,,2013-04-12 17:03:00,
2013-04-12 12:12:00,84.0,53.0,29.93,SSE,153,7.0,7.0,35,0.00,,,0.00,,2013-04-12 17:12:00,
2013-04-12 12:23:00,85.0,53.0,29.92,SSE,150,6.0,6.0,34,0.00,,,0.00,,2013-04-12 17:23:00,
2013-04-12 12:33:00,84.0,53.0,29.91,ESE,121,9.0,9.0,34,0.00,,,0.00,,2013-04-12 17:33:00,
2013-04-12 12:44:00,84.0,53.0,29.91,ESE,121,9.0,9.0,34,0.00,,,0.00,,2013-04-12 17:44:00,
2013-04-12 13:09:00,87.0,53.0,29.90,South,187,7.0,8.0,31,0.00,,,0.00,,2013-04-12 18:09:00,
2013-04-12 13:15:00,87.0,53.0,29.90,South,187,7.0,8.0,31,0.00,,,0.00,,2013-04-12 18:15:00,
2013-04-12 14:26:00,88.0,50.0,29.86,SSE,153,11.0,11.0,27,0.00,,,0.00,,2013-04-12 19:26:00,
2013-04-12 14:27:00,89.0,49.0,29.85,SE,143,11.0,11.0,25,0.00,,,0.00,,2013-04-12 19:27:00,
2013-04-12 14:32:00,89.0,50.0,29.85,SE,145,9.0,11.0,26,0.00,,,0.00,,2013-04-12 19:32:00,
2013-04-12 14:43:00,89.0,50.0,29.85,SE,145,9.0,11.0,26,0.00,,,0.00,,2013-04-12 19:43:00,
2013-04-12 14:53:00,90.0,49.0,29.84,SSE,158,7.0,7.0,25,0.00,,,0.00,,2013-04-12 19:53:00,
2013-04-12 15:02:00,91.0,48.0,29.83,SE,131,8.0,8.0,23,0.00,,,0.00,,2013-04-12 20:02:00,
2013-04-12 15:12:00,91.0,48.0,29.83,SE,131,8.0,8.0,23,0.00,,,0.00,,2013-04-12 20:12:00,
2013-04-12 15:22:00,90.0,48.0,29.82,SSE,160,11.0,11.0,24,0.00,,,0.00,,2013-04-12 20:22:00,
2013-04-12 15:32:00,91.0,48.0,29.81,SSW,208,13.0,13.0,23,0.00,,,0.00,,2013-04-12 20:32:00,
2013-04-12 15:42:00,91.0,48.0,29.81,SSW,208,13.0,13.0,23,0.00,,,0.00,,2013-04-12 20:42:00,
2013-04-12 15:52:00,90.0,47.0,29.80,SSE,166,9.0,10.0,23,0.00,,,0.00,,2013-04-12 20:52:00,
2013-04-12 16:02:00,90.0,47.0,29.80,SSE,155,10.0,10.0,23,0.00,,,0.00,,2013-04-12 21:02:00,
2013-04-12 16:12:00,90.0,47.0,29.80,SSE,155,10.0,10.0,23,0.00,,,0.00,,2013-04-12 21:12:00,
2013-04-12 16:22:00,89.0,46.0,29.79,SSE,155,12.0,15.0,23,0.00,,,0.00,,2013-04-12 21:22:00,
2013-04-12 16:32:00,90.0,47.0,29.78,SE,139,12.0,12.0,23,0.00,,,0.00,,2013-04-12 21:32:00,
2013-04-12 16:43:00,90.0,47.0,29.78,SE,139,12.0,12.0,23,0.00,,,0.00,,2013-04-12 21:43:00,
2013-04-12 16:53:00,89.0,45.0,29.77,SSE,165,10.0,11.0,22,0.00,,,0.00,,2013-04-12 21:53:00,
2013-04-12 17:02:00,88.0,46.0,29.77,SSE,153,11.0,11.0,23,0.00,,,0.00,,2013-04-12 22:02:00,
2013-04-12 17:12:00,88.0,46.0,29.77,SSE,153,11.0,11.0,23,0.00,,,0.00,,2013-04-12 22:12:00,
2013-04-12 17:22:00,88.0,46.0,29.76,SE,146,11.0,11.0,23,0.00,,,0.00,,2013-04-12 22:22:00,
2013-04-12 17:32:00,88.0,47.0,29.76,SW,217,9.0,9.0,24,0.00,,,0.00,,2013-04-12 22:32:00,
2013-04-12 17:42:00,88.0,47.0,29.76,SW,217,9.0,9.0,24,0.00,,,0.00,,2013-04-12 22:42:00,
2013-04-12 17:52:00,87.0,45.0,29.75,SE,141,12.0,13.0,23,0.00,,,0.00,,2013-04-12 22:52:00,
2013-04-12 18:03:00,86.0,46.0,29.75,SE,139,7.0,9.0,25,0.00,,,0.00,,2013-04-12 23:03:00,
2013-04-12 18:12:00,86.0,46.0,29.75,SSE,165,11.0,13.0,25,0.00,,,0.00,,2013-04-12 23:12:00,
2013-04-12 18:22:00,86.0,46.0,29.75,SSE,165,11.0,13.0,25,0.00,,,0.00,,2013-04-12 23:22:00,
2013-04-12 18:32:00,84.0,44.0,29.75,South,173,12.0,12.0,25,0.00,,,0.00,,2013-04-12 23:32:00,
2013-04-12 18:42:00,84.0,44.0,29.75,South,173,12.0,12.0,25,0.00,,,0.00,,2013-04-12 23:42:00,
2013-04-12 18:52:00,84.0,45.0,29.75,SSE,150,10.0,10.0,26,0.00,,,0.00,,2013-04-12 23:52:00,
2013-04-12 19:02:00,83.0,46.0,29.75,SSE,162,11.0,12.0,27,0.00,,,0.00,,2013-04-13 00:02:00,
2013-04-12 19:12:00,83.0,46.0,29.75,SSE,162,11.0,12.0,27,0.00,,,0.00,,2013-04-13 00:12:00,
2013-04-12 19:22:00,81.0,45.0,29.75,SSE,158,9.0,9.0,28,0.00,,,0.00,,2013-04-13 00:22:00,
2013-04-12 19:32:00,80.0,44.0,29.75,SSE,156,11.0,11.0,28,0.00,,,0.00,,2013-04-13 00:32:00,
2013-04-12 19:42:00,80.0,44.0,29.75,SSE,156,11.0,11.0,28,0.00,,,0.00,,2013-04-13 00:42:00,
2013-04-12 19:52:00,78.0,45.0,29.75,SSE,158,10.0,10.0,31,0.00,,,0.00,,2013-04-13 00:52:00,
2013-04-12 20:02:00,76.0,45.0,29.75,SE,142,6.0,6.0,33,0.00,,,0.00,,2013-04-13 01:02:00,
2013-04-12 20:12:00,76.0,45.0,29.75,SE,142,6.0,6.0,33,0.00,,,0.00,,2013-04-13 01:12:00,
2013-04-12 20:22:00,73.0,44.0,29.76,SE,139,7.0,7.0,35,0.00,,,0.00,,2013-04-13 01:22:00,
2013-04-12 20:32:00,71.0,43.0,29.76,South,176,8.0,8.0,37,0.00,,,0.00,,2013-04-13 01:32:00,
2013-04-12 20:42:00,71.0,43.0,29.76,South,176,8.0,8.0,37,0.00,,,0.00,,2013-04-13 01:42:00,
2013-04-12 20:52:00,70.0,44.0,29.77,SE,134,8.0,8.0,39,0.00,,,0.00,,2013-04-13 01:52:00,
2013-04-12 21:02:00,68.0,43.0,29.78,South,170,7.0,7.0,41,0.00,,,0.00,,2013-04-13 02:02:00,
2013-04-12 21:12:00,68.0,43.0,29.78,South,170,7.0,7.0,41,0.00,,,0.00,,2013-04-13 02:12:00,
2013-04-12 21:22:00,66.0,43.0,29.79,SE,135,6.0,6.0,43,0.00,,,0.00,,2013-04-13 02:22:00,
2013-04-12 21:32:00,65.0,43.0,29.80,SSE,156,6.0,6.0,44,0.00,,,0.00,,2013-04-13 02:32:00,
2013-04-12 21:42:00,65.0,43.0,29.80,SSE,156,6.0,6.0,44,0.00,,,0.00,,2013-04-13 02:42:00,
2013-04-12 21:53:00,64.0,43.0,29.80,SSE,148,7.0,7.0,46,0.00,,,0.00,,2013-04-13 02:53:00,
2013-04-12 22:02:00,63.0,43.0,29.81,SE,141,7.0,8.0,48,0.00,,,0.00,,2013-04-13 03:02:00,
2013-04-12 22:12:00,63.0,43.0,29.81,SE,141,7.0,8.0,48,0.00,,,0.00,,2013-04-13 03:12:00,
2013-04-12 22:22:00,62.0,43.0,29.82,SSE,158,6.0,6.0,50,0.00,,,0.00,,2013-04-13 03:22:00,
2013-04-12 22:33:00,62.0,44.0,29.83,SE,141,7.0,7.0,52,0.00,,,0.00,,2013-04-13 03:33:00,
2013-04-12 22:42:00,62.0,44.0,29.83,SE,141,7.0,7.0,52,0.00,,,0.00,,2013-04-13 03:42:00,
2013-04-12 22:52:00,62.0,44.0,29.83,SE,136,8.0,8.0,52,0.00,,,0.00,,2013-04-13 03:52:00,
2013-04-12 23:03:00,63.0,45.0,29.84,SSE,149,10.0,13.0,52,0.00,,,0.00,,2013-04-13 04:03:00,
2013-04-12 23:12:00,63.0,45.0,29.84,SSE,149,10.0,13.0,52,0.00,,,0.00,,2013-04-13 04:12:00,
2013-04-12 23:23:00,64.0,46.0,29.85,SSE,149,9.0,9.0,52,0.00,,,0.00,,2013-04-13 04:23:00,
2013-04-12 23:33:00,63.0,46.0,29.85,ESE,107,8.0,8.0,53,0.00,,,0.00,,2013-04-13 04:33:00,
2013-04-12 23:42:00,63.0,46.0,29.85,ESE,107,8.0,8.0,53,0.00,,,0.00,,2013-04-13 04:42:00,
2013-04-12 23:53:00,63.0,46.0,29.86,SE,135,8.0,10.0,54,0.00,,,0.00,,2013-04-13 04:53:00,